Time;durP1;ratioP1;P1;durP2;ratioP2;P2;SDS_P1;SDS_P2;PMS_P1;PMS_P2;Temp;Humidity;BMP_temperature;BMP_pressure;BME280_temperature;BME280_humidity;BME280_pressure;Samples;Min_cycle;Max_cycle;Signal;HPM_P1;HPM_P2
2022/10/12 00:01:09;;;;;;;6.82;2.67;;;;;;;;;;5069378;28;20086;-66
2022/10/12 00:03:36;;;;;;;6.57;3.17;;;;;;;;;;5070167;28;20043;-66
2022/10/12 00:06:07;;;;;;;11.43;3.30;;;;;;;;;;5068773;28;20036;-66
2022/10/12 00:08:33;;;;;;;9.27;3.60;;;;;;;;;;5070754;28;20071;-66
2022/10/12 00:10:59;;;;;;;5.18;3.20;;;;;;;;;;5069874;28;20135;-66
2022/10/12 00:13:25;;;;;;;8.68;3.42;;;;;;;;;;5068982;28;20131;-66
2022/10/12 00:15:51;;;;;;;7.97;4.15;;;;;;;;;;5070797;28;20045;-66
2022/10/12 00:18:18;;;;;;;6.57;3.38;;;;;;;;;;5068790;28;20356;-66
2022/10/12 00:20:44;;;;;;;6.85;3.50;;;;;;;;;;5070778;28;20494;-66
2022/10/12 00:23:10;;;;;;;9.52;3.55;;;;;;;;;;5069347;28;20052;-66
2022/10/12 00:25:36;;;;;;;6.55;2.80;;;;;;;;;;5068848;28;20044;-66
2022/10/12 00:28:03;;;;;;;6.85;3.08;;;;;;;;;;5070527;28;20047;-66
2022/10/12 00:30:29;;;;;;;4.70;2.72;;;;;;;;;;5070514;28;20514;-66
2022/10/12 00:32:56;;;;;;;8.23;3.60;;;;;;;;;;5068854;28;20064;-66
2022/10/12 00:35:22;;;;;;;8.95;3.60;;;;;;;;;;5070174;28;20333;-66
2022/10/12 00:37:48;;;;;;;9.32;3.97;;;;;;;;;;5068876;28;20074;-66
2022/10/12 00:40:14;;;;;;;6.63;3.90;;;;;;;;;;5070156;28;20626;-66
2022/10/12 00:42:40;;;;;;;6.43;3.67;;;;;;;;;;5068981;28;20128;-66
2022/10/12 00:45:09;;;;;;;7.53;3.50;;;;;;;;;;5069022;28;20408;-66
2022/10/12 00:47:36;;;;;;;7.18;3.28;;;;;;;;;;5070139;28;20083;-66
2022/10/12 00:50:08;;;;;;;6.20;3.80;;;;;;;;;;5068905;28;20040;-66
2022/10/12 00:52:55;;;;;;;8.90;3.45;;;;;;;;;;5068713;28;20064;-66
2022/10/12 00:55:21;;;;;;;8.70;3.72;;;;;;;;;;5068212;28;20106;-66
2022/10/12 00:57:49;;;;;;;9.07;4.32;;;;;;;;;;5070277;28;20474;-66
2022/10/12 01:00:15;;;;;;;9.93;3.70;;;;;;;;;;5068428;28;20106;-66
2022/10/12 01:02:42;;;;;;;5.80;3.60;;;;;;;;;;5069628;28;20046;-66
2022/10/12 01:05:09;;;;;;;7.68;3.47;;;;;;;;;;5069861;28;20037;-65
2022/10/12 01:07:35;;;;;;;9.77;3.38;;;;;;;;;;5068645;28;20123;-65
2022/10/12 01:10:01;;;;;;;4.75;3.22;;;;;;;;;;5067281;28;20045;-65
2022/10/12 01:12:27;;;;;;;3.45;2.40;;;;;;;;;;5067989;28;20447;-65
2022/10/12 01:14:53;;;;;;;6.85;2.45;;;;;;;;;;5069415;28;20036;-65
2022/10/12 01:17:23;;;;;;;4.53;2.78;;;;;;;;;;5067752;28;20045;-65
2022/10/12 01:20:15;;;;;;;6.30;2.75;;;;;;;;;;5071269;28;20057;-65
2022/10/12 01:22:41;;;;;;;;;;;;;;;;;;5065307;28;20056;-65
2022/10/12 01:25:26;;;;;;;5.15;2.50;;;;;;;;;;5071843;28;20395;-65
2022/10/12 01:27:54;;;;;;;7.03;2.70;;;;;;;;;;5073323;28;20083;-65
2022/10/12 01:30:21;;;;;;;5.85;2.80;;;;;;;;;;5073096;28;20048;-65
2022/10/12 01:32:50;;;;;;;6.93;2.97;;;;;;;;;;5072959;28;20040;-65
2022/10/12 01:35:16;;;;;;;3.97;2.40;;;;;;;;;;5071877;28;20025;-65
2022/10/12 01:37:45;;;;;;;5.40;2.58;;;;;;;;;;5071911;28;20407;-65
2022/10/12 01:40:14;;;;;;;6.18;2.90;;;;;;;;;;5071360;28;20043;-65
2022/10/12 01:42:41;;;;;;;8.23;3.03;;;;;;;;;;5073396;28;20124;-65
2022/10/12 01:45:11;;;;;;;5.43;2.80;;;;;;;;;;5073282;28;20044;-65
2022/10/12 01:47:39;;;;;;;5.88;2.67;;;;;;;;;;5071327;28;20043;-65
2022/10/12 01:50:06;;;;;;;4.40;2.40;;;;;;;;;;5071788;28;20044;-65
2022/10/12 01:52:59;;;;;;;6.32;2.92;;;;;;;;;;5071445;28;20080;-65
2022/10/12 01:55:51;;;;;;;4.57;2.40;;;;;;;;;;5071111;28;20063;-65
2022/10/12 01:58:17;;;;;;;7.20;2.50;;;;;;;;;;5056141;28;20527;-65
2022/10/12 02:00:50;;;;;;;5.18;3.03;;;;;;;;;;5072870;28;20128;-65
2022/10/12 02:03:33;;;;;;;4.45;2.65;;;;;;;;;;5072819;28;20086;-65
2022/10/12 02:06:02;;;;;;;6.22;3.15;;;;;;;;;;5071294;28;20052;-65
2022/10/12 02:08:31;;;;;;;6.63;2.58;;;;;;;;;;5071488;28;20050;-65
2022/10/12 02:11:15;;;;;;;4.22;2.83;;;;;;;;;;5070461;28;20114;-65
2022/10/12 02:13:50;;;;;;;6.22;2.72;;;;;;;;;;5071010;28;20058;-65
2022/10/12 02:16:20;;;;;;;4.45;2.60;;;;;;;;;;5071154;28;20067;-65
2022/10/12 02:18:49;;;;;;;3.65;2.33;;;;;;;;;;5071137;28;20480;-65
2022/10/12 02:21:17;;;;;;;4.15;2.58;;;;;;;;;;5071294;28;20105;-65
2022/10/12 02:23:44;;;;;;;4.85;2.70;;;;;;;;;;5071135;28;20040;-65
2022/10/12 02:26:12;;;;;;;4.93;2.90;;;;;;;;;;5071002;28;20479;-65
2022/10/12 02:28:38;;;;;;;7.28;3.35;;;;;;;;;;5071022;28;20048;-65
2022/10/12 02:31:23;;;;;;;11.23;3.05;;;;;;;;;;5054184;28;20110;-65
2022/10/12 02:34:12;;;;;;;6.55;3.67;;;;;;;;;;5072305;28;20094;-65
2022/10/12 02:36:50;;;;;;;5.85;3.67;;;;;;;;;;5035303;28;20184;-65
2022/10/12 02:39:19;;;;;;;6.15;3.55;;;;;;;;;;5071743;28;20544;-65
2022/10/12 02:41:50;;;;;;;9.63;3.90;;;;;;;;;;5070846;28;20132;-65
2022/10/12 02:44:20;;;;;;;5.15;3.20;;;;;;;;;;5072261;28;20090;-65
2022/10/12 02:46:47;;;;;;;6.30;3.45;;;;;;;;;;5070104;28;20458;-65
2022/10/12 02:49:13;;;;;;;10.38;3.95;;;;;;;;;;5072027;28;20124;-65
2022/10/12 02:51:40;;;;;;;7.32;3.90;;;;;;;;;;5071682;28;20053;-65
2022/10/12 02:54:06;;;;;;;7.07;4.50;;;;;;;;;;5053448;28;20136;-65
2022/10/12 02:56:32;;;;;;;9.38;3.88;;;;;;;;;;5070491;28;20037;-65
2022/10/12 02:58:58;;;;;;;10.05;4.68;;;;;;;;;;5070393;28;20044;-66
2022/10/12 03:01:24;;;;;;;8.88;4.20;;;;;;;;;;5069744;28;20459;-65
2022/10/12 03:03:50;;;;;;;9.13;4.65;;;;;;;;;;5071733;28;20040;-65
2022/10/12 03:06:18;;;;;;;6.70;4.13;;;;;;;;;;5071573;28;20048;-65
2022/10/12 03:08:45;;;;;;;8.30;3.97;;;;;;;;;;5069431;28;20044;-65
2022/10/12 03:11:13;;;;;;;6.15;3.75;;;;;;;;;;5071195;28;20044;-65
2022/10/12 03:13:39;;;;;;;9.75;4.25;;;;;;;;;;5069829;28;20164;-65
2022/10/12 03:16:06;;;;;;;7.88;4.50;;;;;;;;;;5071237;28;20545;-65
2022/10/12 03:18:33;;;;;;;7.15;4.22;;;;;;;;;;5069911;28;20455;-65
2022/10/12 03:20:59;;;;;;;6.78;4.07;;;;;;;;;;5069786;28;20052;-65
2022/10/12 03:23:25;;;;;;;10.10;4.40;;;;;;;;;;5069511;28;20131;-65
2022/10/12 03:25:52;;;;;;;8.15;4.63;;;;;;;;;;5070885;28;20032;-65
2022/10/12 03:28:18;;;;;;;11.50;5.15;;;;;;;;;;5071096;28;20410;-65
2022/10/12 03:30:44;;;;;;;8.60;4.82;;;;;;;;;;5069253;28;20148;-65
2022/10/12 03:33:11;;;;;;;10.35;5.00;;;;;;;;;;5071041;28;20036;-65
2022/10/12 03:35:37;;;;;;;10.40;4.78;;;;;;;;;;5070824;28;20032;-65
2022/10/12 03:38:03;;;;;;;14.35;5.00;;;;;;;;;;5069043;28;20051;-65
2022/10/12 03:40:29;;;;;;;10.00;5.03;;;;;;;;;;5071051;28;20043;-65
2022/10/12 03:42:55;;;;;;;10.93;4.72;;;;;;;;;;5069596;28;20510;-65
2022/10/12 03:45:21;;;;;;;13.50;5.60;;;;;;;;;;5070643;28;20222;-65
2022/10/12 03:47:47;;;;;;;12.02;5.72;;;;;;;;;;5069425;28;20036;-65
2022/10/12 03:50:13;;;;;;;9.68;5.88;;;;;;;;;;5070870;28;20072;-65
2022/10/12 03:52:39;;;;;;;9.40;5.10;;;;;;;;;;5070358;28;20102;-65
2022/10/12 03:55:05;;;;;;;9.18;4.90;;;;;;;;;;5069575;28;20041;-65
2022/10/12 03:57:31;;;;;;;13.27;6.32;;;;;;;;;;5071125;28;20040;-65
2022/10/12 03:59:57;;;;;;;10.68;5.40;;;;;;;;;;5069386;28;20044;-65
2022/10/12 04:02:24;;;;;;;9.10;5.20;;;;;;;;;;5069379;28;20072;-65
2022/10/12 04:04:50;;;;;;;12.48;6.45;;;;;;;;;;5069259;28;20074;-65
2022/10/12 04:07:16;;;;;;;10.80;5.72;;;;;;;;;;5052606;28;20055;-65
2022/10/12 04:09:42;;;;;;;12.95;5.72;;;;;;;;;;5068619;28;20036;-65
2022/10/12 04:12:08;;;;;;;12.55;6.13;;;;;;;;;;5068863;28;20117;-65
2022/10/12 04:14:34;;;;;;;12.80;6.60;;;;;;;;;;5069198;28;20348;-65
2022/10/12 04:17:00;;;;;;;11.43;6.15;;;;;;;;;;5068955;28;20056;-65
2022/10/12 04:19:26;;;;;;;10.70;5.88;;;;;;;;;;5069064;28;20040;-65
2022/10/12 04:21:52;;;;;;;16.98;6.50;;;;;;;;;;5070336;28;20375;-65
2022/10/12 04:24:18;;;;;;;12.43;6.40;;;;;;;;;;5069115;28;20116;-65
2022/10/12 04:26:44;;;;;;;12.57;6.53;;;;;;;;;;5068966;28;20440;-65
2022/10/12 04:29:12;;;;;;;13.75;6.90;;;;;;;;;;5052481;28;20048;-65
2022/10/12 04:31:38;;;;;;;11.32;6.75;;;;;;;;;;5068450;28;20053;-65
2022/10/12 04:34:04;;;;;;;14.07;6.80;;;;;;;;;;5068387;28;20036;-65
2022/10/12 04:36:30;;;;;;;13.40;7.85;;;;;;;;;;5069096;28;20439;-65
2022/10/12 04:38:56;;;;;;;11.70;6.75;;;;;;;;;;5069841;28;20074;-65
2022/10/12 04:41:22;;;;;;;10.32;6.32;;;;;;;;;;5070448;28;20067;-65
2022/10/12 04:43:48;;;;;;;13.40;7.22;;;;;;;;;;5069228;28;20049;-65
2022/10/12 04:46:14;;;;;;;11.55;6.63;;;;;;;;;;5068350;28;20032;-66
2022/10/12 04:48:40;;;;;;;10.70;6.07;;;;;;;;;;5068966;28;20040;-66
2022/10/12 04:51:06;;;;;;;12.15;7.30;;;;;;;;;;5068956;28;20486;-65
2022/10/12 04:53:32;;;;;;;13.10;7.13;;;;;;;;;;5071145;28;20040;-66
2022/10/12 04:56:01;;;;;;;13.25;6.63;;;;;;;;;;5072743;28;20075;-66
2022/10/12 04:58:27;;;;;;;12.70;7.15;;;;;;;;;;5072450;28;20040;-65
2022/10/12 05:00:53;;;;;;;12.27;6.35;;;;;;;;;;5072448;28;20475;-65
2022/10/12 05:03:19;;;;;;;13.38;7.47;;;;;;;;;;5070918;28;20050;-65
2022/10/12 05:05:45;;;;;;;9.48;6.32;;;;;;;;;;5071614;28;20131;-65
2022/10/12 05:08:11;;;;;;;13.27;7.53;;;;;;;;;;5071550;28;20152;-65
2022/10/12 05:10:38;;;;;;;17.00;7.50;;;;;;;;;;5073219;28;20107;-65
2022/10/12 05:13:04;;;;;;;14.75;7.65;;;;;;;;;;5073352;28;20055;-65
2022/10/12 05:15:30;;;;;;;11.98;6.90;;;;;;;;;;5071145;28;20071;-65
2022/10/12 05:17:57;;;;;;;11.15;6.80;;;;;;;;;;5071797;28;20431;-65
2022/10/12 05:20:23;;;;;;;14.10;6.60;;;;;;;;;;5073041;28;20456;-66
2022/10/12 05:22:49;;;;;;;11.18;6.60;;;;;;;;;;5072697;28;20052;-66
2022/10/12 05:25:15;;;;;;;12.77;7.13;;;;;;;;;;5071875;28;20513;-66
2022/10/12 05:27:41;;;;;;;11.88;6.88;;;;;;;;;;5088690;28;20044;-66
2022/10/12 05:30:08;;;;;;;11.88;7.07;;;;;;;;;;5071308;28;20044;-65
2022/10/12 05:32:34;;;;;;;10.60;5.88;;;;;;;;;;5071206;28;20048;-65
2022/10/12 05:35:00;;;;;;;11.60;6.25;;;;;;;;;;5071913;28;20044;-65
2022/10/12 05:37:26;;;;;;;18.00;6.03;;;;;;;;;;5072366;28;20121;-65
2022/10/12 05:39:52;;;;;;;12.38;5.30;;;;;;;;;;5071551;28;20121;-66
2022/10/12 05:42:18;;;;;;;12.07;5.75;;;;;;;;;;5071634;28;20049;-66
2022/10/12 05:44:44;;;;;;;10.40;6.43;;;;;;;;;;5072559;28;20037;-66
2022/10/12 05:47:10;;;;;;;12.23;5.50;;;;;;;;;;5071685;28;20070;-66
2022/10/12 05:49:36;;;;;;;10.60;5.53;;;;;;;;;;5072863;28;20037;-66
2022/10/12 05:52:02;;;;;;;10.40;5.38;;;;;;;;;;5072612;28;20047;-65
2022/10/12 05:54:28;;;;;;;10.30;5.50;;;;;;;;;;5071198;28;20063;-65
2022/10/12 05:56:54;;;;;;;10.52;5.97;;;;;;;;;;5072777;28;20036;-65
2022/10/12 05:59:20;;;;;;;9.57;5.90;;;;;;;;;;5072255;28;20043;-65
2022/10/12 06:01:48;;;;;;;13.93;6.00;;;;;;;;;;5071473;28;20445;-65
2022/10/12 06:04:14;;;;;;;12.68;6.25;;;;;;;;;;5072426;28;20047;-65
2022/10/12 06:06:40;;;;;;;11.88;6.95;;;;;;;;;;5070337;28;20060;-65
2022/10/12 06:09:06;;;;;;;11.68;5.72;;;;;;;;;;5072426;28;20397;-65
2022/10/12 06:11:33;;;;;;;12.07;5.85;;;;;;;;;;5054094;28;20048;-65
2022/10/12 06:13:59;;;;;;;11.70;6.03;;;;;;;;;;5070570;28;20047;-65
2022/10/12 06:16:25;;;;;;;11.50;6.13;;;;;;;;;;5066384;28;20477;-63
2022/10/12 06:18:51;;;;;;;9.27;6.22;;;;;;;;;;5064630;28;20064;-63
2022/10/12 06:21:17;;;;;;;11.55;6.07;;;;;;;;;;5070971;28;20079;-63
2022/10/12 06:23:43;;;;;;;9.57;6.10;;;;;;;;;;5072129;28;20051;-63
2022/10/12 06:26:09;;;;;;;11.35;6.05;;;;;;;;;;5071432;28;20051;-63
2022/10/12 06:28:35;;;;;;;11.48;6.32;;;;;;;;;;5071146;28;20036;-63
2022/10/12 06:31:01;;;;;;;13.00;5.50;;;;;;;;;;5070881;28;20051;-63
2022/10/12 06:33:27;;;;;;;15.35;5.70;;;;;;;;;;5070839;28;20032;-63
2022/10/12 06:35:54;;;;;;;12.50;6.25;;;;;;;;;;5071559;28;20312;-63
2022/10/12 06:38:20;;;;;;;15.23;5.90;;;;;;;;;;5066772;28;20094;-63
2022/10/12 06:40:46;;;;;;;14.15;6.25;;;;;;;;;;5065320;28;20040;-63
2022/10/12 06:43:13;;;;;;;9.02;5.75;;;;;;;;;;5062923;28;20423;-63
2022/10/12 06:45:39;;;;;;;14.07;6.53;;;;;;;;;;5070353;28;20033;-63
2022/10/12 06:48:06;;;;;;;11.05;6.70;;;;;;;;;;5068301;28;20047;-62
2022/10/12 06:50:32;;;;;;;14.68;6.43;;;;;;;;;;5068145;28;21020;-62
2022/10/12 06:52:58;;;;;;;9.88;6.50;;;;;;;;;;5070564;28;20072;-62
2022/10/12 06:55:24;;;;;;;10.77;7.05;;;;;;;;;;5071106;28;20037;-62
2022/10/12 06:57:50;;;;;;;13.70;6.60;;;;;;;;;;5066042;28;20037;-62
2022/10/12 07:00:17;;;;;;;25.55;8.07;;;;;;;;;;5070243;28;20383;-62
2022/10/12 07:02:43;;;;;;;13.85;7.15;;;;;;;;;;5068075;28;20040;-64
2022/10/12 07:05:09;;;;;;;12.55;7.55;;;;;;;;;;5062455;28;20117;-64
2022/10/12 07:07:35;;;;;;;14.10;7.47;;;;;;;;;;5065815;28;20048;-64
2022/10/12 07:10:03;;;;;;;11.07;8.23;;;;;;;;;;5066919;28;20040;-63
2022/10/12 07:12:29;;;;;;;15.85;7.95;;;;;;;;;;5068601;28;20876;-64
2022/10/12 07:14:55;;;;;;;17.35;8.23;;;;;;;;;;5069795;28;20062;-64
2022/10/12 07:17:21;;;;;;;16.17;8.75;;;;;;;;;;5067952;28;20036;-64
2022/10/12 07:19:47;;;;;;;14.93;8.80;;;;;;;;;;5066160;28;20047;-64
2022/10/12 07:22:13;;;;;;;16.98;9.20;;;;;;;;;;5069338;28;20052;-65
2022/10/12 07:24:39;;;;;;;17.63;10.05;;;;;;;;;;5069090;28;20048;-65
2022/10/12 07:27:08;;;;;;;20.02;10.00;;;;;;;;;;5067959;28;20135;-65
2022/10/12 07:29:34;;;;;;;17.67;9.23;;;;;;;;;;5068825;28;20049;-65
2022/10/12 07:32:00;;;;;;;16.52;8.82;;;;;;;;;;5069944;28;20044;-65
2022/10/12 07:34:27;;;;;;;21.55;10.10;;;;;;;;;;5069063;28;20037;-64
2022/10/12 07:36:53;;;;;;;19.80;10.05;;;;;;;;;;5051532;28;20083;-65
2022/10/12 07:39:21;;;;;;;18.25;10.20;;;;;;;;;;5068869;28;20056;-64
2022/10/12 07:41:47;;;;;;;19.65;10.85;;;;;;;;;;5069244;28;20055;-64
2022/10/12 07:44:13;;;;;;;24.88;9.93;;;;;;;;;;5068947;28;20427;-64
2022/10/12 07:46:39;;;;;;;20.52;10.88;;;;;;;;;;5069411;28;20855;-64
2022/10/12 07:49:05;;;;;;;28.70;10.73;;;;;;;;;;5069517;28;20044;-64
2022/10/12 07:51:31;;;;;;;21.73;10.48;;;;;;;;;;5069625;28;20098;-64
2022/10/12 07:53:59;;;;;;;23.73;11.40;;;;;;;;;;5070037;28;20040;-64
2022/10/12 07:56:25;;;;;;;20.05;10.85;;;;;;;;;;5070171;28;20036;-64
2022/10/12 07:58:52;;;;;;;20.50;9.77;;;;;;;;;;5069084;28;20044;-65
2022/10/12 08:01:19;;;;;;;20.02;10.75;;;;;;;;;;5069813;28;20044;-64
2022/10/12 08:03:45;;;;;;;25.38;10.85;;;;;;;;;;5069817;28;20211;-64
2022/10/12 08:06:12;;;;;;;30.00;12.10;;;;;;;;;;5068613;28;20045;-65
2022/10/12 08:08:39;;;;;;;21.80;10.20;;;;;;;;;;5068919;28;20078;-64
2022/10/12 08:11:05;;;;;;;22.35;10.35;;;;;;;;;;5069157;28;20060;-65
2022/10/12 08:13:31;;;;;;;19.20;9.57;;;;;;;;;;5068950;28;20040;-65
2022/10/12 08:15:57;;;;;;;19.88;9.13;;;;;;;;;;5069585;28;20043;-64
2022/10/12 08:18:24;;;;;;;21.95;9.57;;;;;;;;;;5069209;28;20041;-65
2022/10/12 08:20:50;;;;;;;21.08;10.07;;;;;;;;;;5068024;28;20033;-64
2022/10/12 08:23:16;;;;;;;15.80;8.93;;;;;;;;;;5068822;28;20036;-65
2022/10/12 08:25:42;;;;;;;21.75;10.25;;;;;;;;;;5069722;28;20482;-65
2022/10/12 08:28:09;;;;;;;23.25;9.65;;;;;;;;;;5071248;28;20047;-64
2022/10/12 08:30:34;;;;;;;19.50;9.00;;;;;;;;;;5073907;28;20609;-65
2022/10/12 08:33:01;;;;;;;36.72;10.23;;;;;;;;;;5073747;28;20155;-64
2022/10/12 08:35:27;;;;;;;20.67;9.02;;;;;;;;;;5073508;28;20151;-65
2022/10/12 08:37:53;;;;;;;20.45;8.88;;;;;;;;;;5073637;28;20032;-64
2022/10/12 08:40:25;;;;;;;24.50;9.73;;;;;;;;;;5073037;28;20044;-65
2022/10/12 08:43:15;;;;;;;19.67;8.50;;;;;;;;;;5073492;28;20040;-65
2022/10/12 08:45:47;;;;;;;15.40;8.50;;;;;;;;;;5045087;28;20097;-65
2022/10/12 08:48:15;;;;;;;20.80;8.30;;;;;;;;;;5071677;28;20052;-65
2022/10/12 08:50:50;;;;;;;19.10;7.70;;;;;;;;;;5072527;28;20041;-65
2022/10/12 08:53:21;;;;;;;20.58;8.02;;;;;;;;;;5073188;28;20039;-65
2022/10/12 08:55:47;;;;;;;21.05;8.40;;;;;;;;;;5073243;28;20040;-64
2022/10/12 08:58:21;;;;;;;18.15;7.68;;;;;;;;;;5072574;28;20043;-64
2022/10/12 09:00:50;;;;;;;16.27;7.57;;;;;;;;;;5073452;28;20059;-64
2022/10/12 09:03:21;;;;;;;16.85;8.63;;;;;;;;;;5072897;28;20046;-64
2022/10/12 09:05:50;;;;;;;27.27;8.30;;;;;;;;;;5073025;28;20033;-65
2022/10/12 09:08:22;;;;;;;16.80;7.38;;;;;;;;;;5071020;28;20119;-65
2022/10/12 09:11:02;;;;;;;18.55;7.32;;;;;;;;;;5072084;28;20045;-64
2022/10/12 09:13:55;;;;;;;15.45;7.28;;;;;;;;;;5072794;28;20052;-64
2022/10/12 09:16:26;;;;;;;16.65;6.72;;;;;;;;;;5072590;28;20427;-64
2022/10/12 09:18:56;;;;;;;13.30;6.40;;;;;;;;;;5072286;28;20086;-64
2022/10/12 09:21:23;;;;;;;19.02;6.85;;;;;;;;;;5072795;28;20091;-64
2022/10/12 09:23:50;;;;;;;14.50;5.45;;;;;;;;;;5071444;28;20490;-64
2022/10/12 09:26:18;;;;;;;16.00;5.95;;;;;;;;;;5072289;28;20134;-65
2022/10/12 09:28:54;;;;;;;18.67;5.63;;;;;;;;;;5072739;28;20360;-65
2022/10/12 09:31:36;;;;;;;15.93;6.10;;;;;;;;;;5071868;28;20047;-64
2022/10/12 09:34:05;;;;;;;19.80;6.20;;;;;;;;;;5070498;28;20356;-66
2022/10/12 09:36:33;;;;;;;11.43;4.93;;;;;;;;;;5070144;28;20037;-65
2022/10/12 09:39:01;;;;;;;13.43;4.63;;;;;;;;;;5070006;28;20074;-64
2022/10/12 09:41:40;;;;;;;14.63;5.10;;;;;;;;;;5072000;28;20040;-64
2022/10/12 09:44:07;;;;;;;14.27;5.05;;;;;;;;;;5065015;28;20044;-63
2022/10/12 09:46:42;;;;;;;17.98;5.47;;;;;;;;;;5069025;28;20040;-64
2022/10/12 09:49:08;;;;;;;19.77;5.28;;;;;;;;;;5070625;28;20534;-64
2022/10/12 09:51:34;;;;;;;17.80;5.38;;;;;;;;;;5070478;28;20107;-64
2022/10/12 09:54:02;;;;;;;16.05;5.20;;;;;;;;;;5059974;28;20436;-63
2022/10/12 09:56:48;;;;;;;15.55;4.57;;;;;;;;;;5066892;28;20085;-63
2022/10/12 09:59:27;;;;;;;13.50;4.72;;;;;;;;;;5099492;28;20119;-64
2022/10/12 10:01:56;;;;;;;13.02;4.82;;;;;;;;;;5071322;28;20072;-63
2022/10/12 10:04:24;;;;;;;15.68;4.60;;;;;;;;;;5071015;28;20072;-63
2022/10/12 10:06:50;;;;;;;14.18;3.95;;;;;;;;;;5068171;28;20048;-63
2022/10/12 10:09:28;;;;;;;14.07;3.85;;;;;;;;;;5074669;28;20048;-63
2022/10/12 10:11:54;;;;;;;9.95;4.03;;;;;;;;;;5070099;28;20056;-64
2022/10/12 10:14:20;;;;;;;15.05;3.97;;;;;;;;;;5074977;28;20123;-64
2022/10/12 10:16:48;;;;;;;11.90;3.78;;;;;;;;;;5069302;28;20048;-64
2022/10/12 10:19:19;;;;;;;12.05;4.13;;;;;;;;;;5070478;28;20124;-64
2022/10/12 10:21:45;;;;;;;14.35;4.13;;;;;;;;;;5069692;28;20047;-64
2022/10/12 10:24:26;;;;;;;18.77;4.55;;;;;;;;;;5068784;28;20040;-63
2022/10/12 10:26:53;;;;;;;16.88;5.10;;;;;;;;;;5065375;28;20695;-64
2022/10/12 10:29:32;;;;;;;13.80;4.30;;;;;;;;;;5068425;28;20048;-64
2022/10/12 10:32:11;;;;;;;21.55;5.22;;;;;;;;;;5070160;28;20048;-64
2022/10/12 10:35:01;;;;;;;13.55;3.78;;;;;;;;;;5070916;28;20563;-64
2022/10/12 10:37:45;;;;;;;45.90;6.53;;;;;;;;;;5068436;28;20067;-64
2022/10/12 10:40:31;;;;;;;9.15;2.83;;;;;;;;;;5068624;28;20035;-64
2022/10/12 10:43:27;;;;;;;8.82;2.80;;;;;;;;;;5096976;28;20055;-64
2022/10/12 10:46:12;;;;;;;12.60;2.83;;;;;;;;;;5062833;28;20059;-64
2022/10/12 10:48:50;;;;;;;13.43;3.25;;;;;;;;;;5068597;28;22076;-64
2022/10/12 10:51:16;;;;;;;9.98;3.30;;;;;;;;;;5069945;28;20040;-64
2022/10/12 10:53:47;;;;;;;15.00;3.38;;;;;;;;;;5068380;28;20036;-64
2022/10/12 10:56:26;;;;;;;13.80;3.63;;;;;;;;;;5073019;28;20119;-64
2022/10/12 10:58:56;;;;;;;11.77;2.80;;;;;;;;;;5054219;28;20132;-64
2022/10/12 11:01:25;;;;;;;17.05;4.20;;;;;;;;;;5069931;28;20374;-64
2022/10/12 11:03:54;;;;;;;13.88;4.00;;;;;;;;;;5068360;28;20075;-64
2022/10/12 11:06:27;;;;;;;9.00;3.13;;;;;;;;;;5069069;28;20043;-64
2022/10/12 11:08:59;;;;;;;11.32;3.90;;;;;;;;;;5070296;28;20036;-64
2022/10/12 11:11:27;;;;;;;18.95;4.25;;;;;;;;;;5069747;28;20057;-64
2022/10/12 11:14:02;;;;;;;14.32;4.10;;;;;;;;;;5069836;28;20036;-64
2022/10/12 11:16:29;;;;;;;12.70;4.30;;;;;;;;;;5070082;28;20102;-64
2022/10/12 11:18:57;;;;;;;12.93;3.80;;;;;;;;;;5069265;28;20033;-64
2022/10/12 11:21:36;;;;;;;16.20;3.42;;;;;;;;;;5070005;28;20040;-64
2022/10/12 11:24:08;;;;;;;11.60;3.85;;;;;;;;;;5065388;28;20049;-64
2022/10/12 11:26:36;;;;;;;12.70;3.50;;;;;;;;;;5068810;28;20074;-64
2022/10/12 11:29:03;;;;;;;18.42;4.07;;;;;;;;;;5074216;28;20115;-64
2022/10/12 11:31:43;;;;;;;12.55;3.45;;;;;;;;;;5069304;28;20040;-64
2022/10/12 11:34:13;;;;;;;14.27;3.97;;;;;;;;;;5080419;28;20052;-64
2022/10/12 11:36:42;;;;;;;29.23;4.53;;;;;;;;;;5070043;28;20115;-64
2022/10/12 11:39:14;;;;;;;27.77;5.07;;;;;;;;;;5067780;28;20471;-64
2022/10/12 11:41:45;;;;;;;23.25;4.70;;;;;;;;;;5064602;28;20048;-64
2022/10/12 11:44:11;;;;;;;13.05;4.13;;;;;;;;;;5065939;28;20036;-64
2022/10/12 11:46:44;;;;;;;11.63;3.22;;;;;;;;;;5069592;28;20550;-64
2022/10/12 11:49:23;;;;;;;12.05;3.90;;;;;;;;;;5070362;28;20039;-64
2022/10/12 11:51:51;;;;;;;17.05;3.80;;;;;;;;;;5069083;28;20066;-64
2022/10/12 11:54:23;;;;;;;23.50;4.82;;;;;;;;;;5065186;28;20040;-64
2022/10/12 11:56:49;;;;;;;;;;;;;;;;;;5067919;28;20863;-64
2022/10/12 11:59:18;;;;;;;7.93;2.60;;;;;;;;;;5068241;28;19916;-64
2022/10/12 12:01:52;;;;;;;9.32;2.95;;;;;;;;;;5067774;28;20071;-64
2022/10/12 12:04:21;;;;;;;10.65;3.53;;;;;;;;;;5066591;28;20040;-64
2022/10/12 12:06:49;;;;;;;15.82;2.85;;;;;;;;;;5065365;28;20372;-64
2022/10/12 12:09:18;;;;;;;7.68;2.20;;;;;;;;;;5068376;28;20059;-64
2022/10/12 12:11:44;;;;;;;11.10;3.42;;;;;;;;;;5071332;28;20088;-64
2022/10/12 12:14:24;;;;;;;10.35;2.83;;;;;;;;;;5068135;28;20098;-64
2022/10/12 12:17:08;;;;;;;11.13;3.08;;;;;;;;;;5067362;28;20047;-64
2022/10/12 12:19:39;;;;;;;12.63;2.65;;;;;;;;;;5066348;28;20041;-64
2022/10/12 12:22:11;;;;;;;8.43;2.35;;;;;;;;;;5065167;28;20037;-64
2022/10/12 12:24:37;;;;;;;11.43;2.60;;;;;;;;;;5069511;28;20052;-64
2022/10/12 12:27:03;;;;;;;10.98;2.90;;;;;;;;;;5066972;28;20048;-64
2022/10/12 12:29:30;;;;;;;11.45;2.60;;;;;;;;;;5069146;28;20044;-64
2022/10/12 12:31:59;;;;;;;8.35;2.50;;;;;;;;;;5068126;28;20525;-64
2022/10/12 12:34:26;;;;;;;14.93;3.28;;;;;;;;;;5068786;28;20372;-64
2022/10/12 12:36:52;;;;;;;12.63;2.78;;;;;;;;;;5068306;28;20036;-64
2022/10/12 12:39:24;;;;;;;8.40;2.65;;;;;;;;;;5067464;28;20506;-64
2022/10/12 12:41:52;;;;;;;10.77;2.80;;;;;;;;;;5067155;28;20087;-64
2022/10/12 12:44:33;;;;;;;7.95;3.13;;;;;;;;;;5067570;28;20756;-64
2022/10/12 12:46:59;;;;;;;10.83;3.50;;;;;;;;;;5065012;28;20058;-64
2022/10/12 12:49:38;;;;;;;9.52;3.25;;;;;;;;;;5068811;28;20037;-64
2022/10/12 12:52:16;;;;;;;7.35;2.60;;;;;;;;;;5066874;28;20128;-64
2022/10/12 12:55:02;;;;;;;8.90;3.10;;;;;;;;;;5067139;28;20029;-64
2022/10/12 12:57:50;;;;;;;7.85;2.88;;;;;;;;;;5048387;28;20041;-64
2022/10/12 13:00:22;;;;;;;10.52;3.00;;;;;;;;;;5064802;28;20037;-64
2022/10/12 13:03:07;;;;;;;12.65;3.40;;;;;;;;;;5071878;28;20033;-64
2022/10/12 13:05:42;;;;;;;12.98;3.45;;;;;;;;;;5066841;28;20041;-64
2022/10/12 13:08:17;;;;;;;9.52;3.58;;;;;;;;;;5066431;28;20159;-64
2022/10/12 13:10:56;;;;;;;11.05;3.50;;;;;;;;;;5067777;28;21405;-64
2022/10/12 13:13:25;;;;;;;7.95;3.38;;;;;;;;;;5067568;28;20414;-64
2022/10/12 13:15:54;;;;;;;9.20;3.17;;;;;;;;;;5067433;28;20044;-63
2022/10/12 13:18:27;;;;;;;10.05;3.75;;;;;;;;;;5074208;28;20048;-64
2022/10/12 13:20:54;;;;;;;12.20;3.35;;;;;;;;;;5071879;28;20090;-64
2022/10/12 13:23:22;;;;;;;12.57;4.10;;;;;;;;;;5071075;28;20043;-64
2022/10/12 13:25:50;;;;;;;11.27;4.50;;;;;;;;;;5071055;28;20033;-64
2022/10/12 13:28:21;;;;;;;10.20;4.50;;;;;;;;;;5071397;28;20040;-64
2022/10/12 13:30:50;;;;;;;11.65;3.97;;;;;;;;;;5070451;28;20038;-64
2022/10/12 13:33:34;;;;;;;11.63;4.35;;;;;;;;;;5071623;28;20425;-64
2022/10/12 13:36:03;;;;;;;15.95;4.30;;;;;;;;;;5071317;28;20036;-64
2022/10/12 13:38:30;;;;;;;16.75;4.00;;;;;;;;;;5070375;28;20135;-64
2022/10/12 13:41:01;;;;;;;12.57;4.00;;;;;;;;;;5071489;28;20051;-64
2022/10/12 13:43:45;;;;;;;15.48;4.38;;;;;;;;;;5074521;28;20040;-64
2022/10/12 13:46:34;;;;;;;12.45;4.03;;;;;;;;;;5068220;28;20052;-64
2022/10/12 13:49:01;;;;;;;10.93;4.25;;;;;;;;;;5071415;28;20085;-64
2022/10/12 13:51:28;;;;;;;12.88;3.72;;;;;;;;;;5071735;28;20036;-64
2022/10/12 13:53:54;;;;;;;16.10;4.50;;;;;;;;;;5068522;28;20048;-64
2022/10/12 13:56:22;;;;;;;10.73;4.45;;;;;;;;;;5070170;28;20391;-64
2022/10/12 13:58:50;;;;;;;12.02;4.60;;;;;;;;;;5071399;28;20058;-64
2022/10/12 14:01:16;;;;;;;10.55;4.25;;;;;;;;;;5072301;28;20036;-64
2022/10/12 14:03:43;;;;;;;13.32;4.32;;;;;;;;;;5071278;28;20372;-64
2022/10/12 14:06:27;;;;;;;11.00;4.88;;;;;;;;;;5071550;28;20221;-64
2022/10/12 14:08:58;;;;;;;11.65;4.18;;;;;;;;;;5064159;28;20123;-64
2022/10/12 14:11:25;;;;;;;11.73;4.40;;;;;;;;;;5071770;28;20468;-64
2022/10/12 14:13:52;;;;;;;11.70;4.68;;;;;;;;;;5072529;28;20043;-64
2022/10/12 14:16:18;;;;;;;12.13;4.68;;;;;;;;;;5071609;28;20075;-63
2022/10/12 14:18:45;;;;;;;12.65;4.50;;;;;;;;;;5070910;28;20043;-63
2022/10/12 14:21:28;;;;;;;8.38;4.18;;;;;;;;;;5072058;28;20044;-63
2022/10/12 14:23:54;;;;;;;18.30;5.18;;;;;;;;;;5071797;28;20068;-64
2022/10/12 14:26:20;;;;;;;10.93;5.03;;;;;;;;;;5071794;28;20561;-63
2022/10/12 14:28:46;;;;;;;12.40;4.75;;;;;;;;;;5071789;28;20037;-63
2022/10/12 14:31:12;;;;;;;17.00;5.20;;;;;;;;;;5071474;28;20395;-63
2022/10/12 14:33:38;;;;;;;13.27;4.22;;;;;;;;;;5071756;28;20040;-63
2022/10/12 14:36:12;;;;;;;13.52;4.47;;;;;;;;;;5071505;28;20037;-64
2022/10/12 14:38:40;;;;;;;11.95;4.63;;;;;;;;;;5071619;28;20508;-64
2022/10/12 14:41:25;;;;;;;11.55;4.50;;;;;;;;;;5071693;28;20037;-64
2022/10/12 14:44:06;;;;;;;15.82;4.75;;;;;;;;;;5071337;28;20090;-64
2022/10/12 14:46:32;;;;;;;12.90;4.75;;;;;;;;;;5071428;28;20614;-64